createdAt,value
2023-03-13T00:00:33.666Z,1002.09
2023-03-13T00:01:33.651Z,1002.05
2023-03-13T00:02:33.686Z,1002.01
2023-03-13T00:03:33.670Z,1002.02
2023-03-13T00:04:33.705Z,1002.01
2023-03-13T00:05:33.641Z,1002.01
2023-03-13T00:06:33.644Z,1002.02
2023-03-13T00:07:33.626Z,1001.96
2023-03-13T00:08:33.628Z,1002.03
2023-03-13T00:09:33.618Z,1002.06
2023-03-13T00:10:33.617Z,1002.06
2023-03-13T00:11:33.611Z,1002.05
2023-03-13T00:12:33.610Z,1002.06
2023-03-13T00:13:33.609Z,1002.03
2023-03-13T00:14:33.602Z,1002.01
2023-03-13T00:15:33.600Z,1002.09
2023-03-13T00:16:33.679Z,1002.07
2023-03-13T00:17:33.613Z,1002.13
2023-03-13T00:18:33.588Z,1002.12
2023-03-13T00:19:33.608Z,1002.08
2023-03-13T00:20:33.586Z,1002.07
2023-03-13T00:21:33.574Z,1002.01
2023-03-13T00:22:33.580Z,1002.03
2023-03-13T00:23:33.563Z,1002.01
2023-03-13T00:24:33.562Z,1001.99
2023-03-13T00:25:33.559Z,1001.95
2023-03-13T00:26:33.556Z,1001.97
2023-03-13T00:27:33.554Z,1001.93
2023-03-13T00:28:33.551Z,1001.91
2023-03-13T00:29:33.540Z,1001.94
2023-03-13T00:30:33.580Z,1001.95
2023-03-13T00:31:33.618Z,1001.93
2023-03-13T00:32:33.570Z,1001.96
2023-03-13T00:33:33.535Z,1001.87
2023-03-13T00:34:33.536Z,1001.90
2023-03-13T00:35:33.572Z,1001.90
2023-03-13T00:36:33.519Z,1001.92
2023-03-13T00:37:33.512Z,1001.90
2023-03-13T00:38:33.518Z,1001.88
2023-03-13T00:39:33.503Z,1001.90
2023-03-13T00:40:33.509Z,1001.85
2023-03-13T00:41:33.570Z,1001.89
2023-03-13T00:42:33.494Z,1001.87
2023-03-13T00:43:33.486Z,1001.85
2023-03-13T00:44:33.485Z,1001.80
2023-03-13T00:45:33.479Z,1001.79
2023-03-13T00:46:33.565Z,1001.81
2023-03-13T00:47:33.472Z,1001.74
2023-03-13T00:48:33.471Z,1001.70
2023-03-13T00:49:33.460Z,1001.71
2023-03-13T00:50:33.464Z,1001.70
2023-03-13T00:51:33.479Z,1001.67
2023-03-13T00:52:33.456Z,1001.68
2023-03-13T00:53:33.451Z,1001.67
2023-03-13T00:54:33.451Z,1001.62
2023-03-13T00:55:33.440Z,1001.61
2023-03-13T00:56:33.439Z,1001.60
2023-03-13T00:57:33.440Z,1001.61
2023-03-13T00:58:33.432Z,1001.60
2023-03-13T00:59:33.425Z,1001.59
2023-03-13T01:00:33.431Z,1001.59
2023-03-13T01:01:33.458Z,1001.60
2023-03-13T01:02:33.598Z,1001.57
2023-03-13T01:03:33.455Z,1001.51
2023-03-13T01:04:33.413Z,1001.51
2023-03-13T01:05:33.407Z,1001.53
2023-03-13T01:06:33.418Z,1001.50
2023-03-13T01:07:33.425Z,1001.50
2023-03-13T01:08:33.403Z,1001.58
2023-03-13T01:09:33.397Z,1001.55
2023-03-13T01:10:33.396Z,1001.57
2023-03-13T01:11:33.388Z,1001.55
2023-03-13T01:12:33.388Z,1001.54
2023-03-13T01:13:33.394Z,1001.54
2023-03-13T01:14:33.385Z,1001.55
2023-03-13T01:15:33.401Z,1001.55
2023-03-13T01:16:33.371Z,1001.55
2023-03-13T01:17:33.372Z,1001.56
2023-03-13T01:18:33.369Z,1001.52
2023-03-13T01:19:33.363Z,1001.54
2023-03-13T01:20:33.363Z,1001.46
2023-03-13T01:21:33.362Z,1001.49
2023-03-13T01:22:33.353Z,1001.49
2023-03-13T01:23:33.383Z,1001.49
2023-03-13T01:24:33.347Z,1001.48
2023-03-13T01:25:33.342Z,1001.45
2023-03-13T01:26:33.338Z,1001.46
2023-03-13T01:27:33.335Z,1001.49
2023-03-13T01:28:33.331Z,1001.42
2023-03-13T01:29:33.322Z,1001.50
2023-03-13T01:30:33.329Z,1001.49
2023-03-13T01:31:33.397Z,1001.51
2023-03-13T01:32:33.352Z,1001.55
2023-03-13T01:33:33.315Z,1001.52
2023-03-13T01:34:33.313Z,1001.51
2023-03-13T01:35:33.426Z,1001.54
2023-03-13T01:36:33.303Z,1001.58
2023-03-13T01:37:33.298Z,1001.55
2023-03-13T01:38:33.296Z,1001.56
2023-03-13T01:39:33.311Z,1001.48
2023-03-13T01:40:33.291Z,1001.50
2023-03-13T01:41:33.283Z,1001.51
2023-03-13T01:42:33.285Z,1001.51
2023-03-13T01:43:33.282Z,1001.53
2023-03-13T01:44:33.277Z,1001.53
2023-03-13T01:45:33.266Z,1001.48
2023-03-13T01:46:33.359Z,1001.47
2023-03-13T01:47:33.263Z,1001.44
2023-03-13T01:48:33.264Z,1001.45
2023-03-13T01:49:33.263Z,1001.44
2023-03-13T01:50:33.265Z,1001.43
2023-03-13T01:51:33.253Z,1001.40
2023-03-13T01:52:33.251Z,1001.35
2023-03-13T01:53:33.247Z,1001.33
2023-03-13T01:54:33.247Z,1001.36
2023-03-13T01:55:33.262Z,1001.31
2023-03-13T01:56:33.233Z,1001.28
2023-03-13T01:57:33.229Z,1001.31
2023-03-13T01:58:33.226Z,1001.25
2023-03-13T01:59:33.220Z,1001.25
2023-03-13T02:00:33.222Z,1001.25
2023-03-13T02:01:33.429Z,1001.30
2023-03-13T02:02:33.317Z,1001.26
2023-03-13T02:03:33.208Z,1001.25
2023-03-13T02:04:33.211Z,1001.20
2023-03-13T02:05:33.203Z,1001.20
2023-03-13T02:06:33.196Z,1001.25
2023-03-13T02:07:33.198Z,1001.25
2023-03-13T02:08:33.213Z,1001.21
2023-03-13T02:09:33.200Z,1001.24
2023-03-13T02:10:33.191Z,1001.22
2023-03-13T02:11:33.207Z,1001.21
2023-03-13T02:12:33.181Z,1001.17
2023-03-13T02:13:33.175Z,1001.17
2023-03-13T02:14:33.176Z,1001.20
2023-03-13T02:15:33.188Z,1001.15
2023-03-13T02:16:33.207Z,1001.13
2023-03-13T02:17:33.196Z,1001.11
2023-03-13T02:18:33.172Z,1001.18
2023-03-13T02:19:33.158Z,1001.11
2023-03-13T02:20:33.148Z,1001.07
2023-03-13T02:21:33.169Z,1001.06
2023-03-13T02:22:33.138Z,1000.97
2023-03-13T02:23:33.140Z,1001.00
2023-03-13T02:24:33.138Z,1000.94
2023-03-13T02:25:33.138Z,1000.96
2023-03-13T02:26:33.130Z,1000.91
2023-03-13T02:27:33.175Z,1000.90
2023-03-13T02:28:33.118Z,1000.87
2023-03-13T02:29:33.118Z,1000.87
2023-03-13T02:30:33.116Z,1000.87
2023-03-13T02:31:33.244Z,1000.85
2023-03-13T02:32:33.201Z,1000.86
2023-03-13T02:33:33.121Z,1000.84
2023-03-13T02:34:33.106Z,1000.81
2023-03-13T02:35:33.190Z,1000.80
2023-03-13T02:36:33.092Z,1000.79
2023-03-13T02:37:33.094Z,1000.82
2023-03-13T02:38:33.096Z,1000.85
2023-03-13T02:39:33.086Z,1000.85
2023-03-13T02:40:33.084Z,1000.80
2023-03-13T02:41:33.083Z,1000.80
2023-03-13T02:42:33.071Z,1000.78
2023-03-13T02:43:33.101Z,1000.82
2023-03-13T02:44:33.094Z,1000.77
2023-03-13T02:45:33.070Z,1000.74
2023-03-13T02:46:33.133Z,1000.76
2023-03-13T02:47:33.066Z,1000.68
2023-03-13T02:48:33.057Z,1000.66
2023-03-13T02:49:33.053Z,1000.64
2023-03-13T02:50:33.048Z,1000.67
2023-03-13T02:51:33.103Z,1000.62
2023-03-13T02:52:33.052Z,1000.67
2023-03-13T02:53:33.061Z,1000.62
2023-03-13T02:54:33.048Z,1000.60
2023-03-13T02:55:33.048Z,1000.56
2023-03-13T02:56:33.052Z,1000.54
2023-03-13T02:57:33.032Z,1000.56
2023-03-13T02:58:35.509Z,1000.48
2023-03-13T02:59:33.054Z,1000.47
2023-03-13T03:00:33.064Z,1000.50
2023-03-13T03:01:33.030Z,1000.49
2023-03-13T03:02:33.011Z,1000.46
2023-03-13T03:03:33.042Z,1000.43
2023-03-13T03:04:33.005Z,1000.46
2023-03-13T03:05:33.004Z,1000.40
2023-03-13T03:06:33.003Z,1000.36
2023-03-13T03:07:33.004Z,1000.40
2023-03-13T03:08:32.991Z,1000.37
2023-03-13T03:09:33.001Z,1000.37
2023-03-13T03:10:32.983Z,1000.34
2023-03-13T03:11:32.988Z,1000.34
2023-03-13T03:12:32.979Z,1000.35
2023-03-13T03:13:32.986Z,1000.28
2023-03-13T03:14:32.978Z,1000.28
2023-03-13T03:15:32.998Z,1000.30
2023-03-13T03:16:33.002Z,1000.24
2023-03-13T03:17:32.972Z,1000.27
2023-03-13T03:18:34.606Z,1000.17
2023-03-13T03:19:32.982Z,1000.14
2023-03-13T03:20:32.955Z,1000.14
2023-03-13T03:21:32.951Z,1000.12
2023-03-13T03:22:32.941Z,1000.14
2023-03-13T03:23:32.943Z,1000.08
2023-03-13T03:24:32.938Z,1000.05
2023-03-13T03:25:32.938Z,1000.09
2023-03-13T03:26:32.936Z,1000.07
2023-03-13T03:27:32.926Z,1000.10
2023-03-13T03:28:32.920Z,1000.09
2023-03-13T03:29:32.925Z,1000.08
2023-03-13T03:30:32.913Z,1000.08
2023-03-13T03:31:33.056Z,1000.04
2023-03-13T03:32:32.989Z,1000.07
2023-03-13T03:33:32.907Z,1000.00
2023-03-13T03:34:32.902Z,1000.02
2023-03-13T03:35:32.926Z,1000.14
2023-03-13T03:36:32.895Z,1000.02
2023-03-13T03:37:32.891Z,999.98
2023-03-13T03:38:32.888Z,1000.02
2023-03-13T03:39:32.886Z,999.96
2023-03-13T03:40:32.878Z,1000.01
2023-03-13T03:41:32.890Z,1000.06
2023-03-13T03:42:32.872Z,1000.00
2023-03-13T03:43:32.882Z,999.99
2023-03-13T03:44:32.870Z,999.95
2023-03-13T03:45:32.906Z,999.95
2023-03-13T03:46:32.856Z,999.92
2023-03-13T03:47:32.879Z,1000.00
2023-03-13T03:48:32.859Z,999.94
2023-03-13T03:49:32.856Z,999.95
2023-03-13T03:50:32.858Z,999.92
2023-03-13T03:51:32.850Z,999.92
2023-03-13T03:52:32.841Z,999.86
2023-03-13T03:53:32.864Z,999.84
2023-03-13T03:55:10.137Z,999.82
2023-03-13T03:56:10.140Z,999.86
2023-03-13T03:57:10.156Z,999.81
2023-03-13T03:58:10.142Z,999.82
2023-03-13T03:59:10.120Z,999.78
2023-03-13T04:00:10.126Z,999.79
2023-03-13T04:01:10.145Z,999.75
2023-03-13T04:02:10.246Z,999.71
2023-03-13T04:03:10.224Z,999.77
2023-03-13T04:04:10.114Z,999.74
2023-03-13T04:05:10.116Z,999.74
2023-03-13T04:06:10.181Z,999.73
2023-03-13T04:07:10.111Z,999.70
2023-03-13T04:08:10.102Z,999.66
2023-03-13T04:09:10.106Z,999.58
2023-03-13T04:10:10.100Z,999.58
2023-03-13T04:11:10.102Z,999.58
2023-03-13T04:12:10.093Z,999.54
2023-03-13T04:13:10.090Z,999.57
2023-03-13T04:14:10.085Z,999.53
2023-03-13T04:15:10.078Z,999.53
2023-03-13T04:16:10.148Z,999.50
2023-03-13T04:17:10.076Z,999.51
2023-03-13T04:18:10.070Z,999.44
2023-03-13T04:19:10.090Z,999.46
2023-03-13T04:20:10.061Z,999.46
2023-03-13T04:21:10.057Z,999.48
2023-03-13T04:22:10.062Z,999.46
2023-03-13T04:23:10.051Z,999.39
2023-03-13T04:24:10.081Z,999.44
2023-03-13T04:25:10.049Z,999.41
2023-03-13T04:26:10.045Z,999.41
2023-03-13T04:27:10.034Z,999.34
2023-03-13T04:28:10.045Z,999.34
2023-03-13T04:29:10.041Z,999.34
2023-03-13T04:30:10.046Z,999.30
2023-03-13T04:31:10.138Z,999.29
2023-03-13T04:32:10.036Z,999.32
2023-03-13T04:33:10.025Z,999.27
2023-03-13T04:34:10.022Z,999.23
2023-03-13T04:35:10.128Z,999.25
2023-03-13T04:36:10.105Z,999.21
2023-03-13T04:37:10.002Z,999.20
2023-03-13T04:38:10.005Z,999.21
2023-03-13T04:39:09.996Z,999.16
2023-03-13T04:40:10.003Z,999.19
2023-03-13T04:41:09.993Z,999.12
2023-03-13T04:42:09.998Z,999.19
2023-03-13T04:43:09.999Z,999.15
2023-03-13T04:44:09.990Z,999.07
2023-03-13T04:45:09.977Z,999.08
2023-03-13T04:46:10.035Z,999.06
2023-03-13T04:47:09.976Z,999.02
2023-03-13T04:48:09.974Z,999.02
2023-03-13T04:49:09.972Z,999.03
2023-03-13T04:50:09.971Z,998.96
2023-03-13T04:51:09.988Z,998.97
2023-03-13T04:52:09.963Z,998.99
2023-03-13T04:53:09.953Z,998.95
2023-03-13T04:54:09.960Z,998.93
2023-03-13T04:55:09.951Z,998.93
2023-03-13T04:56:09.965Z,998.92
2023-03-13T04:57:09.944Z,998.87
2023-03-13T04:58:09.946Z,998.86
2023-03-13T04:59:09.937Z,998.86
2023-03-13T05:00:09.943Z,998.84
2023-03-13T05:01:09.992Z,998.80
2023-03-13T05:02:09.927Z,998.81
2023-03-13T05:03:09.921Z,998.79
2023-03-13T05:04:09.930Z,998.77
2023-03-13T05:05:09.978Z,998.75
2023-03-13T05:06:09.932Z,998.70
2023-03-13T05:07:09.939Z,998.69
2023-03-13T05:08:09.928Z,998.70
2023-03-13T05:09:09.909Z,998.69
2023-03-13T05:10:09.918Z,998.67
2023-03-13T05:11:09.911Z,998.64
2023-03-13T05:12:09.894Z,998.63
2023-03-13T05:13:09.894Z,998.61
2023-03-13T05:14:09.925Z,998.60
2023-03-13T05:15:09.894Z,998.56
2023-03-13T05:16:09.938Z,998.52
2023-03-13T05:17:09.876Z,998.54
2023-03-13T05:18:09.881Z,998.46
2023-03-13T05:19:09.876Z,998.45
2023-03-13T05:20:09.875Z,998.41
2023-03-13T05:22:12.457Z,998.35
2023-03-13T05:23:12.472Z,998.33
2023-03-13T05:24:12.456Z,998.29
2023-03-13T05:25:12.439Z,998.28
2023-03-13T05:26:12.432Z,998.27
2023-03-13T05:27:12.433Z,998.23
2023-03-13T05:28:12.427Z,998.21
2023-03-13T05:29:12.426Z,998.16
2023-03-13T05:30:12.423Z,998.15
2023-03-13T05:31:12.517Z,998.18
2023-03-13T05:32:12.416Z,998.16
2023-03-13T05:33:12.412Z,998.15
2023-03-13T05:34:12.405Z,998.11
2023-03-13T05:35:12.406Z,998.09
2023-03-13T05:36:12.423Z,998.07
2023-03-13T05:37:12.408Z,998.06
2023-03-13T05:38:12.396Z,998.07
2023-03-13T05:39:12.427Z,998.07
2023-03-13T05:40:12.397Z,998.00
2023-03-13T05:41:12.386Z,997.98
2023-03-13T05:42:12.396Z,997.99
2023-03-13T05:43:12.388Z,997.89
2023-03-13T05:44:12.378Z,997.94
2023-03-13T05:45:12.377Z,997.89
2023-03-13T05:46:12.444Z,997.88
2023-03-13T05:47:12.368Z,997.88
2023-03-13T05:48:12.357Z,997.92
2023-03-13T05:49:12.359Z,997.88
2023-03-13T05:52:47.742Z,997.86
2023-03-13T05:53:47.743Z,997.85
2023-03-13T05:54:47.759Z,997.84
2023-03-13T05:55:47.731Z,997.80
2023-03-13T05:56:47.728Z,997.73
2023-03-13T05:57:47.724Z,997.76
2023-03-13T05:58:47.724Z,997.76
2023-03-13T05:59:47.716Z,997.75
2023-03-13T06:00:47.714Z,997.67
2023-03-13T06:01:47.723Z,997.64
2023-03-13T06:02:47.700Z,997.65
2023-03-13T06:03:47.848Z,997.56
2023-03-13T06:04:47.969Z,997.61
2023-03-13T06:05:47.700Z,997.57
2023-03-13T06:06:47.689Z,997.56
2023-03-13T06:07:47.693Z,997.57
2023-03-13T06:08:47.687Z,997.55
2023-03-13T06:09:47.691Z,997.58
2023-03-13T06:10:47.698Z,997.56
2023-03-13T06:11:47.676Z,997.50
2023-03-13T06:12:49.084Z,997.46
2023-03-13T06:13:47.669Z,997.45
2023-03-13T06:17:13.499Z,997.46
2023-03-13T06:18:56.038Z,997.44
2023-03-13T06:19:56.046Z,997.41
2023-03-13T06:21:38.583Z,997.40
2023-03-13T06:26:05.202Z,997.35
2023-03-13T06:28:48.464Z,997.43
2023-03-13T06:30:31.005Z,997.17
2023-03-13T06:31:31.050Z,997.15
2023-03-13T06:33:49.744Z,997.16
2023-03-13T06:34:48.611Z,997.19
2023-03-13T06:35:56.425Z,997.11
2023-03-13T06:36:48.597Z,997.07
2023-03-13T06:37:48.587Z,997.05
2023-03-13T06:38:48.594Z,997.07
2023-03-13T06:39:48.622Z,997.04
2023-03-13T06:40:48.582Z,997.07
2023-03-13T06:41:48.602Z,997.00
2023-03-13T06:42:48.578Z,997.13
2023-03-13T06:43:48.579Z,996.96
2023-03-13T06:44:48.570Z,996.91
2023-03-13T06:45:48.605Z,996.90
2023-03-13T06:46:48.644Z,996.85
2023-03-13T06:47:48.556Z,996.86
2023-03-13T06:48:48.555Z,996.81
2023-03-13T06:49:48.552Z,996.76
2023-03-13T06:50:48.566Z,996.79
2023-03-13T06:51:48.547Z,996.79
2023-03-13T06:52:48.550Z,996.76
2023-03-13T06:53:48.575Z,996.74
2023-03-13T06:54:48.565Z,996.69
2023-03-13T06:55:49.446Z,996.66
2023-03-13T06:56:48.535Z,996.72
2023-03-13T06:57:48.540Z,996.62
2023-03-13T06:58:48.523Z,996.62
2023-03-13T06:59:48.514Z,996.61
2023-03-13T07:00:48.587Z,996.53
2023-03-13T07:01:48.509Z,996.55
2023-03-13T07:02:48.521Z,996.56
2023-03-13T07:03:48.543Z,996.48
2023-03-13T07:04:48.506Z,996.46
2023-03-13T07:05:48.504Z,996.46
2023-03-13T07:06:48.502Z,996.36
2023-03-13T07:07:48.514Z,996.44
2023-03-13T07:08:48.504Z,996.37
2023-03-13T07:09:48.489Z,996.38
2023-03-13T07:10:48.489Z,996.36
2023-03-13T07:11:48.482Z,996.33
2023-03-13T07:12:48.490Z,996.29
2023-03-13T07:13:48.502Z,996.39
2023-03-13T07:14:48.480Z,996.36
2023-03-13T07:15:48.469Z,996.31
2023-03-13T07:16:48.560Z,996.32
2023-03-13T07:17:48.474Z,996.25
2023-03-13T07:18:48.465Z,996.28
2023-03-13T07:19:48.477Z,996.26
2023-03-13T07:20:48.459Z,996.29
2023-03-13T07:21:48.450Z,996.24
2023-03-13T07:22:48.456Z,996.25
2023-03-13T07:23:48.447Z,996.28
2023-03-13T07:24:48.505Z,996.19
2023-03-13T07:25:48.437Z,996.25
2023-03-13T07:27:02.039Z,996.24
2023-03-13T07:27:48.441Z,996.29
2023-03-13T07:28:48.433Z,996.31
2023-03-13T07:29:48.454Z,996.32
2023-03-13T07:30:48.430Z,996.28
2023-03-13T07:31:48.467Z,996.26
2023-03-13T07:32:48.497Z,996.21
2023-03-13T07:33:48.416Z,996.19
2023-03-13T07:36:31.749Z,996.25
2023-03-13T07:37:31.715Z,996.28
2023-03-13T07:38:31.703Z,996.18
2023-03-13T07:39:31.702Z,996.11
2023-03-13T07:40:31.693Z,996.12
2023-03-13T07:42:59.321Z,996.08
2023-03-13T07:44:54.931Z,996.06
2023-03-13T07:46:39.431Z,996.08
2023-03-13T07:47:39.419Z,996.07
2023-03-13T07:48:39.430Z,996.04
2023-03-13T07:49:39.414Z,996.02
2023-03-13T07:50:39.481Z,995.99
2023-03-13T07:51:44.027Z,996.00
2023-03-13T07:52:39.462Z,995.92
2023-03-13T07:53:39.503Z,995.84
2023-03-13T07:54:39.401Z,995.98
2023-03-13T07:55:39.405Z,995.87
2023-03-13T07:56:39.394Z,995.86
2023-03-13T07:59:22.869Z,995.80
2023-03-13T08:04:59.693Z,995.70
2023-03-13T08:54:54.592Z,995.13
2023-03-13T08:55:51.959Z,995.15
2023-03-13T08:56:51.939Z,995.13
2023-03-13T08:57:51.939Z,995.02
2023-03-13T08:58:51.959Z,995.05
2023-03-13T08:59:51.939Z,994.98
2023-03-13T09:00:51.928Z,994.89
2023-03-13T09:01:51.930Z,994.94
2023-03-13T09:02:51.953Z,995.03
2023-03-13T09:03:51.990Z,994.97
2023-03-13T09:04:51.918Z,994.95
2023-03-13T09:05:56.543Z,994.91
2023-03-13T09:06:51.909Z,994.86
2023-03-13T09:07:51.910Z,995.12
2023-03-13T09:08:51.923Z,994.90
2023-03-13T09:09:51.902Z,994.80
2023-03-13T09:10:51.921Z,994.87
2023-03-13T09:11:51.906Z,994.80
2023-03-13T09:12:51.888Z,994.79
2023-03-13T09:13:51.899Z,994.73
2023-03-13T09:14:51.886Z,994.71
2023-03-13T09:15:51.921Z,994.70
2023-03-13T09:16:51.893Z,994.89
2023-03-13T09:17:51.937Z,994.71
2023-03-13T09:18:51.988Z,994.80
2023-03-13T09:20:00.036Z,994.73
2023-03-13T09:20:51.881Z,994.77
2023-03-13T09:21:51.867Z,994.71
2023-03-13T09:22:51.861Z,994.74
2023-03-13T09:23:51.865Z,994.73
2023-03-13T09:24:51.852Z,994.83
2023-03-13T09:25:51.859Z,994.72
2023-03-13T09:27:00.978Z,994.69
2023-03-13T09:27:51.853Z,994.70
2023-03-13T09:28:52.113Z,994.64
2023-03-13T09:29:51.857Z,994.63
2023-03-13T09:30:51.872Z,994.82
2023-03-13T09:31:51.837Z,994.65
2023-03-13T09:32:51.888Z,994.78
2023-03-13T09:33:51.836Z,994.72
2023-03-13T09:35:34.372Z,994.70
2023-03-13T09:36:34.384Z,994.78
2023-03-13T09:37:34.372Z,994.68
2023-03-13T09:38:34.366Z,994.66
2023-03-13T09:39:34.359Z,994.84
2023-03-13T09:40:34.363Z,994.82
2023-03-13T09:41:34.452Z,994.81
2023-03-13T09:42:34.375Z,994.68
2023-03-13T09:43:34.344Z,994.76
2023-03-13T09:44:34.348Z,994.63
2023-03-13T09:45:34.358Z,994.70
2023-03-13T09:46:34.400Z,994.68
2023-03-13T09:47:34.335Z,994.69
2023-03-13T09:51:17.633Z,994.69
2023-03-13T09:52:17.636Z,994.68
2023-03-13T09:53:17.641Z,994.68
2023-03-13T09:54:17.617Z,994.63
2023-03-13T09:55:17.625Z,994.69
2023-03-13T09:56:17.612Z,994.64
2023-03-13T09:57:17.608Z,994.67
2023-03-13T09:58:17.628Z,994.69
2023-03-13T09:59:17.618Z,994.74
2023-03-13T10:00:17.602Z,994.64
2023-03-13T10:01:17.635Z,994.61
2023-03-13T10:02:17.596Z,994.54
2023-03-13T10:03:17.603Z,994.56
2023-03-13T10:04:17.634Z,994.48
2023-03-13T10:05:17.588Z,994.52
2023-03-13T10:06:17.582Z,994.52
2023-03-13T10:07:17.584Z,994.53
2023-03-13T10:08:17.582Z,994.70
2023-03-13T10:09:17.576Z,994.46
2023-03-13T10:10:17.575Z,994.47
2023-03-13T10:13:48.451Z,994.46
2023-03-13T10:16:31.772Z,994.49
2023-03-13T10:19:04.343Z,994.44
2023-03-13T10:20:04.349Z,994.45
2023-03-13T10:21:04.343Z,994.48
2023-03-13T10:22:04.341Z,994.44
2023-03-13T10:23:04.336Z,994.35
2023-03-13T10:24:04.332Z,994.34
2023-03-13T10:25:04.331Z,994.52
2023-03-13T10:26:04.329Z,994.39
2023-03-13T10:27:04.324Z,994.46
2023-03-13T10:28:04.317Z,994.42
2023-03-13T10:29:04.345Z,994.33
2023-03-13T10:30:04.318Z,994.43
2023-03-13T10:31:04.452Z,994.42
2023-03-13T10:32:04.309Z,994.50
2023-03-13T10:33:04.308Z,994.27
2023-03-13T10:34:04.304Z,994.48
2023-03-13T10:35:04.313Z,994.33
2023-03-13T10:36:04.365Z,994.30
2023-03-13T10:37:04.307Z,994.42
2023-03-13T10:38:04.293Z,994.32
2023-03-13T10:39:04.297Z,994.31
2023-03-13T10:40:04.294Z,994.41
2023-03-13T10:41:04.293Z,994.27
2023-03-13T10:42:04.281Z,994.32
2023-03-13T10:43:04.291Z,994.20
2023-03-13T10:44:04.282Z,994.31
2023-03-13T10:45:04.297Z,994.27
2023-03-13T10:46:04.268Z,994.19
2023-03-13T10:47:04.388Z,994.27
2023-03-13T10:48:04.323Z,994.28
2023-03-13T10:49:04.290Z,994.16
2023-03-13T10:50:04.270Z,994.14
2023-03-13T10:51:04.290Z,994.13
2023-03-13T10:52:04.268Z,994.12
2023-03-13T10:53:04.273Z,994.20
2023-03-13T10:54:04.249Z,994.23
2023-03-13T10:55:04.263Z,994.15
2023-03-13T10:56:04.263Z,994.17
2023-03-13T10:57:04.261Z,993.97
2023-03-13T10:58:04.241Z,994.05
2023-03-13T10:59:04.254Z,994.15
2023-03-13T11:00:04.424Z,994.09
2023-03-13T11:01:04.296Z,994.12
2023-03-13T11:02:04.235Z,994.09
2023-03-13T11:03:04.396Z,994.12
2023-03-13T11:04:04.231Z,994.14
2023-03-13T11:05:04.232Z,994.14
2023-03-13T11:06:04.227Z,994.15
2023-03-13T11:07:04.230Z,994.04
2023-03-13T11:08:04.288Z,994.16
2023-03-13T11:09:04.221Z,994.17
2023-03-13T11:10:04.225Z,994.18
2023-03-13T11:11:04.228Z,994.06
2023-03-13T11:12:04.215Z,993.99
2023-03-13T11:13:04.224Z,993.98
2023-03-13T11:14:04.214Z,993.96
2023-03-13T11:15:04.282Z,993.94
2023-03-13T11:16:04.344Z,993.93
2023-03-13T11:17:04.229Z,993.91
2023-03-13T11:18:04.219Z,994.13
2023-03-13T11:19:04.222Z,993.98
2023-03-13T11:20:04.209Z,993.92
2023-03-13T11:21:17.295Z,993.81
2023-03-13T11:22:04.263Z,993.85
2023-03-13T11:23:04.195Z,993.88
2023-03-13T11:24:04.197Z,993.85
2023-03-13T11:25:04.196Z,993.70
2023-03-13T11:26:04.188Z,993.74
2023-03-13T11:27:05.396Z,993.70
2023-03-13T11:31:00.126Z,993.71
2023-03-13T11:34:20.319Z,993.79
2023-03-13T11:35:20.275Z,993.77
2023-03-13T11:36:20.281Z,993.70
2023-03-13T11:37:20.272Z,993.68
2023-03-13T11:38:20.265Z,993.74
2023-03-13T11:39:20.258Z,993.71
2023-03-13T11:40:20.262Z,993.72
2023-03-13T11:41:20.302Z,993.64
2023-03-13T11:43:32.864Z,993.59
2023-03-13T11:44:32.852Z,993.62
2023-03-13T11:45:33.002Z,993.65
2023-03-13T11:46:33.050Z,993.68
2023-03-13T11:47:32.862Z,993.81
2023-03-13T11:48:32.849Z,993.58
2023-03-13T11:49:32.879Z,993.69
2023-03-13T11:50:32.845Z,993.61
2023-03-13T11:51:32.985Z,993.66
2023-03-13T11:52:32.848Z,993.73
2023-03-13T11:53:32.853Z,993.74
2023-03-13T11:54:32.853Z,993.77
2023-03-13T11:55:32.843Z,993.74
2023-03-13T11:56:32.845Z,993.77
2023-03-13T11:57:32.854Z,993.63
2023-03-13T11:58:32.838Z,993.65
2023-03-13T11:59:32.844Z,993.68
2023-03-13T12:00:32.837Z,993.68
2023-03-13T12:01:32.842Z,993.54
2023-03-13T12:02:32.916Z,993.55
2023-03-13T12:03:32.988Z,993.55
2023-03-13T12:04:32.836Z,993.46
2023-03-13T12:05:32.921Z,993.51
2023-03-13T12:06:32.828Z,993.45
2023-03-13T12:07:32.837Z,993.47
2023-03-13T12:08:32.829Z,993.46
2023-03-13T12:09:32.827Z,993.37
2023-03-13T12:10:32.828Z,993.48
2023-03-13T12:11:32.826Z,993.52
2023-03-13T12:12:32.826Z,993.44
2023-03-13T12:13:32.828Z,993.47
2023-03-13T12:14:32.821Z,993.45
2023-03-13T12:15:32.819Z,993.47
2023-03-13T12:16:32.923Z,993.42
2023-03-13T12:17:32.929Z,993.41
2023-03-13T12:18:32.818Z,993.43
2023-03-13T12:19:32.820Z,993.44
2023-03-13T12:20:32.809Z,993.43
2023-03-13T12:21:32.917Z,993.48
2023-03-13T12:22:32.814Z,993.51
2023-03-13T12:23:32.868Z,993.71
2023-03-13T12:24:32.809Z,993.58
2023-03-13T12:25:32.925Z,993.47
2023-03-13T12:26:32.809Z,993.41
2023-03-13T12:27:32.848Z,993.47
2023-03-13T12:28:32.876Z,993.38
2023-03-13T12:29:32.804Z,993.40
2023-03-13T12:30:32.818Z,993.36
2023-03-13T12:31:32.815Z,993.38
2023-03-13T12:32:32.848Z,993.35
2023-03-13T12:33:32.805Z,993.52
2023-03-13T12:34:32.803Z,993.44
2023-03-13T12:35:32.807Z,993.30
2023-03-13T12:36:32.794Z,993.25
2023-03-13T12:37:32.831Z,993.32
2023-03-13T12:38:32.801Z,993.27
2023-03-13T12:39:32.796Z,993.33
2023-03-13T12:40:32.794Z,993.29
2023-03-13T12:41:32.803Z,993.35
2023-03-13T12:42:32.793Z,993.27
2023-03-13T12:43:32.818Z,993.48
2023-03-13T12:44:32.794Z,993.29
2023-03-13T12:45:32.835Z,993.38
2023-03-13T12:46:32.930Z,993.42
2023-03-13T12:47:32.829Z,993.36
2023-03-13T12:48:32.893Z,993.13
2023-03-13T12:49:32.803Z,993.07
2023-03-13T12:50:32.797Z,993.10
2023-03-13T12:51:32.797Z,993.10
2023-03-13T12:52:32.786Z,993.18
2023-03-13T12:53:32.923Z,993.10
2023-03-13T12:54:32.783Z,993.12
2023-03-13T12:55:32.793Z,993.04
2023-03-13T12:56:32.797Z,992.88
2023-03-13T12:57:32.834Z,993.00
2023-03-13T12:58:32.794Z,993.04
2023-03-13T12:59:32.785Z,992.95
2023-03-13T13:00:32.774Z,992.96
2023-03-13T13:01:32.904Z,992.95
2023-03-13T13:02:32.795Z,992.92
2023-03-13T13:03:32.986Z,992.93
2023-03-13T13:04:32.863Z,993.02
2023-03-13T13:05:32.776Z,992.94
2023-03-13T13:06:32.815Z,992.91
2023-03-13T13:07:32.786Z,992.82
2023-03-13T13:08:32.782Z,992.88
2023-03-13T13:09:32.841Z,992.91
2023-03-13T13:10:32.841Z,992.88
2023-03-13T13:11:32.780Z,993.01
2023-03-13T13:12:32.771Z,992.86
2023-03-13T13:13:32.774Z,992.78
2023-03-13T13:14:32.772Z,992.83
2023-03-13T13:15:32.868Z,992.94
2023-03-13T13:16:32.797Z,992.92
2023-03-13T13:17:32.778Z,992.84
2023-03-13T13:18:32.767Z,992.77
2023-03-13T13:19:32.775Z,992.70
2023-03-13T13:20:32.786Z,992.60
2023-03-13T13:21:32.771Z,992.66
2023-03-13T13:22:32.788Z,992.61
2023-03-13T13:23:32.775Z,992.59
2023-03-13T13:24:32.769Z,992.60
2023-03-13T13:25:32.796Z,992.72
2023-03-13T13:26:32.769Z,992.60
2023-03-13T13:27:32.765Z,992.66
2023-03-13T13:28:32.770Z,992.63
2023-03-13T13:29:32.771Z,992.59
2023-03-13T13:30:32.845Z,992.63
2023-03-13T13:31:32.915Z,992.69
2023-03-13T13:32:32.868Z,992.59
2023-03-13T13:33:32.766Z,992.92
2023-03-13T13:34:32.766Z,992.61
2023-03-13T13:35:32.826Z,992.53
2023-03-13T13:36:32.769Z,992.60
2023-03-13T13:37:32.773Z,992.56
2023-03-13T13:38:32.760Z,992.60
2023-03-13T13:39:32.867Z,992.71
2023-03-13T13:40:32.760Z,992.63
2023-03-13T13:41:32.881Z,992.50
2023-03-13T13:42:32.784Z,992.48
2023-03-13T13:43:32.766Z,992.63
2023-03-13T13:44:32.759Z,992.48
2023-03-13T13:45:32.767Z,992.52
2023-03-13T13:46:32.850Z,992.52
2023-03-13T13:47:33.829Z,992.46
2023-03-13T13:48:32.784Z,992.51
2023-03-13T13:49:32.764Z,992.40
2023-03-13T13:50:32.760Z,992.53
2023-03-13T13:51:32.763Z,992.65
2023-03-13T13:52:32.762Z,992.54